createdAt,value
2023-03-10T00:01:33.976Z,98206.91
2023-03-10T00:04:03.032Z,98210.19
2023-03-10T00:06:35.350Z,98218.94
2023-03-10T00:09:02.223Z,98217.94
2023-03-10T00:11:29.107Z,98213.03
2023-03-10T00:14:03.861Z,98195.91
2023-03-10T00:16:38.144Z,98204.31
2023-03-10T00:19:14.992Z,98174.97
2023-03-10T00:21:42.156Z,98161.56
2023-03-10T00:24:14.030Z,98172.25
2023-03-10T00:26:40.847Z,98160.13
2023-03-10T00:29:07.522Z,98155.56
2023-03-10T00:31:34.196Z,98157.81
2023-03-10T00:34:00.769Z,98144.69
2023-03-10T00:36:36.599Z,98145.69
2023-03-10T00:39:03.540Z,98150.84
2023-03-10T00:41:31.893Z,98149.66
2023-03-10T00:44:03.167Z,98142.63
2023-03-10T00:46:30.441Z,98131.25
2023-03-10T00:49:00.218Z,98106.88
2023-03-10T00:51:31.246Z,98108.69
2023-03-10T00:53:59.464Z,98104.41
2023-03-10T00:56:29.539Z,98104.41
2023-03-10T00:59:02.107Z,98100.69
2023-03-10T01:01:33.230Z,98103.56
2023-03-10T01:04:02.103Z,98070.81
2023-03-10T01:06:32.347Z,98076.06
2023-03-10T01:08:59.075Z,98078.72
2023-03-10T01:11:32.198Z,98062.16
2023-03-10T01:14:00.627Z,98036.06
2023-03-10T01:16:31.394Z,98063.78
2023-03-10T01:19:00.530Z,98043.53
2023-03-10T01:21:32.995Z,98033.84
2023-03-10T01:24:00.494Z,98048.91
2023-03-10T01:26:30.830Z,98052.06
2023-03-10T01:29:00.517Z,98046.94
2023-03-10T01:31:30.350Z,98039.00
2023-03-10T01:34:00.264Z,98052.03
2023-03-10T01:36:37.386Z,98043.84
2023-03-10T01:39:03.969Z,98039.19
2023-03-10T01:41:30.623Z,98003.09
2023-03-10T01:44:02.140Z,98017.22
2023-03-10T01:46:47.488Z,98022.84
2023-03-10T01:49:40.209Z,98022.13
2023-03-10T01:52:13.670Z,98020.56
2023-03-10T01:54:49.085Z,97998.16
2023-03-10T01:57:18.987Z,97990.38
2023-03-10T01:59:49.536Z,97968.47
2023-03-10T02:02:33.255Z,97977.53
2023-03-10T02:05:01.967Z,97994.88
2023-03-10T02:07:38.899Z,97960.69
2023-03-10T02:10:07.131Z,97976.03
2023-03-10T02:12:33.707Z,97982.59
2023-03-10T02:15:00.374Z,97965.91
2023-03-10T02:17:29.947Z,97940.03
2023-03-10T02:20:14.291Z,97959.47
2023-03-10T02:22:42.616Z,97961.69
2023-03-10T02:25:29.355Z,97945.41
2023-03-10T02:28:00.693Z,97934.25
2023-03-10T02:30:31.871Z,97931.09
2023-03-10T02:33:01.871Z,97938.31
2023-03-10T02:35:28.885Z,97931.38
2023-03-10T02:38:03.881Z,97908.66
2023-03-10T02:40:34.584Z,97902.16
2023-03-10T02:43:15.555Z,97927.72
2023-03-10T02:45:45.814Z,97908.94
2023-03-10T02:48:14.787Z,97910.22
2023-03-10T02:50:46.763Z,97888.66
2023-03-10T02:53:16.508Z,97893.47
2023-03-10T02:55:43.226Z,97891.38
2023-03-10T02:58:11.370Z,97899.34
2023-03-10T03:00:39.959Z,97884.22
2023-03-10T03:03:09.186Z,97886.16
2023-03-10T03:05:36.469Z,97876.16
2023-03-10T03:08:03.908Z,97874.22
2023-03-10T03:10:30.607Z,97882.50
2023-03-10T03:13:00.369Z,97880.56
2023-03-10T03:15:28.767Z,97863.94
2023-03-10T03:17:59.593Z,97870.88
2023-03-10T03:20:29.004Z,97843.81
2023-03-10T03:22:59.398Z,97849.47
2023-03-10T03:25:29.411Z,97837.06
2023-03-10T03:28:00.690Z,97853.03
2023-03-10T03:30:29.047Z,97833.47
2023-03-10T03:33:01.140Z,97838.19
2023-03-10T03:35:33.678Z,97834.06
2023-03-10T03:38:01.619Z,97836.88
2023-03-10T03:40:31.637Z,97826.09
2023-03-10T03:43:01.996Z,97837.25
2023-03-10T03:45:31.790Z,97820.13
2023-03-10T03:47:59.542Z,97825.00
2023-03-10T03:50:29.934Z,97808.78
2023-03-10T03:53:02.119Z,97815.50
2023-03-10T03:55:29.756Z,97799.03
2023-03-10T03:57:58.593Z,97818.81
2023-03-10T04:00:32.805Z,97798.53
2023-03-10T04:03:04.052Z,97809.81
2023-03-10T04:05:31.676Z,97807.47
2023-03-10T04:08:00.385Z,97797.69
2023-03-10T04:10:28.736Z,97799.41
2023-03-10T04:12:57.570Z,97789.59
2023-03-10T04:15:29.598Z,97782.66
2023-03-10T04:17:59.068Z,97762.47
2023-03-10T04:20:32.272Z,97798.81
2023-03-10T04:22:58.937Z,97795.88
2023-03-10T04:25:30.734Z,97796.00
2023-03-10T04:27:59.300Z,97765.41
2023-03-10T04:30:28.731Z,97779.47
2023-03-10T04:32:59.063Z,97776.47
2023-03-10T04:35:30.664Z,97750.09
2023-03-10T04:37:58.729Z,97773.44
2023-03-10T04:40:31.733Z,97752.06
2023-03-10T04:43:01.925Z,97771.97
2023-03-10T04:45:29.780Z,97761.47
2023-03-10T04:47:58.477Z,97777.34
2023-03-10T04:50:29.971Z,97766.34
2023-03-10T04:52:58.383Z,97764.41
2023-03-10T04:55:28.350Z,97763.44
2023-03-10T04:58:01.883Z,97740.41
2023-03-10T05:00:28.636Z,97744.53
2023-03-10T05:03:01.242Z,97741.41
2023-03-10T05:05:35.826Z,97760.09
2023-03-10T05:08:07.625Z,97755.34
2023-03-10T05:10:34.580Z,97750.84
2023-03-10T05:13:03.495Z,97745.84
2023-03-10T05:15:33.692Z,97753.84
2023-03-10T05:18:00.607Z,97734.38
2023-03-10T05:20:30.044Z,97752.09
2023-03-10T05:23:00.825Z,97721.31
2023-03-10T05:25:30.306Z,97749.72
2023-03-10T05:28:00.354Z,97741.53
2023-03-10T05:30:28.947Z,97748.22
2023-03-10T05:32:59.434Z,97754.19
2023-03-10T05:35:31.858Z,97755.88
2023-03-10T05:38:00.101Z,97743.81
2023-03-10T05:40:30.167Z,97753.41
2023-03-10T05:42:58.559Z,97743.03
2023-03-10T05:45:34.485Z,97751.13
2023-03-10T05:48:04.139Z,97731.84
2023-03-10T05:50:30.797Z,97737.41
2023-03-10T05:53:00.419Z,97723.59
2023-03-10T05:55:29.956Z,97752.53
2023-03-10T05:58:00.308Z,97726.50
2023-03-10T06:00:28.859Z,97736.47
2023-03-10T06:03:00.143Z,97740.66
2023-03-10T06:05:32.142Z,97740.47
2023-03-10T06:08:00.431Z,97736.66
2023-03-10T06:10:30.142Z,97732.84
2023-03-10T06:12:59.801Z,97733.09
2023-03-10T06:15:32.381Z,97726.69
2023-03-10T06:18:00.914Z,97727.72
2023-03-10T06:20:29.424Z,97731.84
2023-03-10T06:23:04.844Z,97744.69
2023-03-10T06:25:31.425Z,97757.97
2023-03-10T06:28:01.469Z,97758.81
2023-03-10T06:30:31.332Z,97740.13
2023-03-10T06:33:01.570Z,97743.31
2023-03-10T06:35:31.895Z,97750.75
2023-03-10T06:37:58.791Z,97759.59
2023-03-10T06:40:29.100Z,97769.22
2023-03-10T06:43:01.667Z,97770.66
2023-03-10T06:45:31.229Z,97751.53
2023-03-10T06:47:59.738Z,97764.53
2023-03-10T06:50:34.244Z,97764.16
2023-03-10T06:53:01.043Z,97778.75
2023-03-10T06:55:31.939Z,97785.56
2023-03-10T06:57:58.525Z,97778.22
2023-03-10T07:00:30.252Z,97778.34
2023-03-10T07:03:00.122Z,97778.34
2023-03-10T07:05:28.458Z,97785.44
2023-03-10T07:07:59.942Z,97769.47
2023-03-10T07:10:31.331Z,97781.69
2023-03-10T07:13:02.359Z,97793.00
2023-03-10T07:15:29.671Z,97796.06
2023-03-10T07:17:59.367Z,97799.16
2023-03-10T07:20:29.744Z,97802.75
2023-03-10T07:23:02.121Z,97789.75
2023-03-10T07:25:28.649Z,97771.31
2023-03-10T07:28:01.707Z,97784.09
2023-03-10T07:30:31.574Z,97771.31
2023-03-10T07:33:01.012Z,97783.81
2023-03-10T07:35:29.277Z,97780.09
2023-03-10T07:38:02.090Z,97748.22
2023-03-10T07:40:29.188Z,97778.28
2023-03-10T07:43:00.840Z,97754.09
2023-03-10T07:45:32.656Z,97769.88
2023-03-10T07:48:02.156Z,97764.91
2023-03-10T07:50:29.081Z,97769.38
2023-03-10T07:53:01.735Z,97767.22
2023-03-10T07:55:37.799Z,97748.22
2023-03-10T07:58:07.662Z,97767.16
2023-03-10T08:00:35.912Z,97749.88
2023-03-10T08:03:02.480Z,97764.59
2023-03-10T08:05:34.848Z,97769.97
2023-03-10T08:08:01.581Z,97764.56
2023-03-10T08:10:31.523Z,97777.63
2023-03-10T08:13:03.149Z,97759.28
2023-03-10T08:15:30.461Z,97766.09
2023-03-10T08:18:01.148Z,97760.88
2023-03-10T08:20:29.712Z,97784.91
2023-03-10T08:22:59.384Z,97789.91
2023-03-10T08:25:28.536Z,97764.44
2023-03-10T08:28:01.372Z,97761.50
2023-03-10T08:30:32.468Z,97753.78
2023-03-10T08:33:02.072Z,97770.84
2023-03-10T08:35:30.361Z,97761.88
2023-03-10T08:38:05.194Z,97777.72
2023-03-10T08:40:34.678Z,97791.44
2023-03-10T08:43:01.329Z,97773.56
2023-03-10T08:45:30.390Z,97771.94
2023-03-10T08:47:59.898Z,97799.91
2023-03-10T08:50:31.223Z,97799.31
2023-03-10T08:53:00.994Z,97801.84
2023-03-10T08:55:29.637Z,97795.16
2023-03-10T08:58:02.495Z,97793.28
2023-03-10T09:00:37.502Z,97806.75
2023-03-10T09:03:04.250Z,97801.00
2023-03-10T09:05:32.264Z,97793.06
2023-03-10T09:07:58.833Z,97769.69
2023-03-10T09:10:31.377Z,97807.16
2023-03-10T09:13:13.022Z,97789.13
2023-03-10T09:15:41.560Z,97817.00
2023-03-10T09:18:11.895Z,97793.06
2023-03-10T09:20:45.755Z,97794.53
2023-03-10T09:23:15.763Z,97779.72
2023-03-10T09:25:45.065Z,97770.81
2023-03-10T09:28:17.420Z,97779.53
2023-03-10T09:30:45.822Z,97786.00
2023-03-10T09:33:16.317Z,97780.56
2023-03-10T09:36:05.937Z,97798.75
2023-03-10T09:38:34.065Z,97786.53
2023-03-10T09:41:08.953Z,97791.75
2023-03-10T09:43:39.224Z,97791.72
2023-03-10T09:46:15.049Z,97783.91
2023-03-10T09:48:50.342Z,97784.72
2023-03-10T09:51:30.358Z,97789.38
2023-03-10T09:54:11.262Z,97780.63
2023-03-10T09:56:38.265Z,97801.72
2023-03-10T09:59:08.844Z,97774.25
2023-03-10T10:01:35.805Z,97781.13
2023-03-10T10:04:15.664Z,97777.06
2023-03-10T10:06:46.266Z,97806.06
2023-03-10T10:09:31.952Z,97783.63
2023-03-10T10:12:11.682Z,97774.81
2023-03-10T10:14:56.604Z,97794.88
2023-03-10T10:17:53.713Z,97791.69
2023-03-10T10:20:34.950Z,97787.00
2023-03-10T10:23:20.967Z,97794.16
2023-03-10T10:25:50.445Z,97803.06
2023-03-10T10:28:28.282Z,97788.75
2023-03-10T10:31:14.210Z,97814.25
2023-03-10T10:34:03.126Z,97806.56
2023-03-10T10:36:32.155Z,97785.06
2023-03-10T10:39:00.882Z,97802.88
2023-03-10T10:41:34.071Z,97771.38
2023-03-10T10:44:14.399Z,97785.13
2023-03-10T10:47:00.994Z,97790.75
2023-03-10T10:49:30.163Z,97808.66
2023-03-10T10:52:01.178Z,97800.13
2023-03-10T10:54:37.825Z,97783.34
2023-03-10T10:57:18.842Z,97788.50
2023-03-10T10:59:45.925Z,97794.97
2023-03-10T11:02:32.457Z,97779.72
2023-03-10T11:05:15.782Z,97785.28
2023-03-10T11:07:42.847Z,97798.06
2023-03-10T11:10:15.963Z,97789.22
2023-03-10T11:13:07.259Z,97790.47
2023-03-10T11:15:39.638Z,97773.97
2023-03-10T11:18:14.411Z,97753.94
2023-03-10T11:20:51.841Z,97762.81
2023-03-10T11:23:29.650Z,97771.94
2023-03-10T11:26:10.906Z,97759.41
2023-03-10T11:29:00.301Z,97757.28
2023-03-10T11:31:41.321Z,97755.13
2023-03-10T11:34:43.579Z,97737.34
2023-03-10T11:37:20.784Z,97775.34
2023-03-10T11:40:05.982Z,97763.00
2023-03-10T11:42:39.008Z,97752.31
2023-03-10T11:45:31.638Z,97748.19
2023-03-10T11:48:07.401Z,97748.09
2023-03-10T11:50:42.304Z,97748.94
2023-03-10T11:53:16.290Z,97743.59
2023-03-10T11:55:44.442Z,97741.25
2023-03-10T11:58:29.805Z,97749.41
2023-03-10T12:01:00.692Z,97752.38
2023-03-10T12:03:42.299Z,97754.63
2023-03-10T12:06:14.802Z,97748.47
2023-03-10T12:08:42.624Z,97743.78
2023-03-10T12:11:16.848Z,97744.56
2023-03-10T12:13:47.884Z,97739.59
2023-03-10T12:16:19.014Z,97726.69
2023-03-10T12:18:46.226Z,97744.84
2023-03-10T12:21:21.995Z,97731.44
2023-03-10T12:24:44.852Z,97715.13
2023-03-10T12:27:11.519Z,97724.56
2023-03-10T12:29:43.239Z,97735.13
2023-03-10T12:32:41.717Z,97744.84
2023-03-10T12:35:59.326Z,97724.81
2023-03-10T12:38:41.743Z,97748.50
2023-03-10T12:41:32.794Z,97746.22
2023-03-10T12:44:01.479Z,97729.72
2023-03-10T12:46:40.723Z,97732.13
2023-03-10T12:49:46.188Z,97692.59
2023-03-10T12:52:30.315Z,97699.38
2023-03-10T12:55:17.453Z,97700.31
2023-03-10T12:58:02.448Z,97721.03
2023-03-10T13:00:38.349Z,97682.75
2023-03-10T13:03:16.008Z,97684.78
2023-03-10T13:06:06.178Z,97684.84
2023-03-10T13:09:02.678Z,97693.28
2023-03-10T13:11:36.486Z,97670.44
2023-03-10T13:14:10.788Z,97703.44
2023-03-10T13:16:39.955Z,97682.94
2023-03-10T13:19:07.120Z,97699.72
2023-03-10T13:21:36.355Z,97691.66
2023-03-10T13:24:22.020Z,97698.63
2023-03-10T13:26:48.596Z,97680.03
2023-03-10T13:29:19.564Z,97681.53
2023-03-10T13:32:00.538Z,97713.22
2023-03-10T13:34:36.213Z,97682.91
2023-03-10T13:37:04.932Z,97704.81
2023-03-10T13:39:31.871Z,97673.81
2023-03-10T13:42:02.110Z,97679.63
2023-03-10T13:44:34.557Z,97676.63
2023-03-10T13:47:04.332Z,97680.81
2023-03-10T13:49:33.983Z,97681.19
2023-03-10T13:52:03.458Z,97700.38
2023-03-10T13:54:32.053Z,97706.19
2023-03-10T13:57:04.628Z,97695.16
2023-03-10T13:59:34.427Z,97706.75
2023-03-10T14:02:01.943Z,97708.34
2023-03-10T14:04:43.703Z,97708.41
2023-03-10T14:07:11.815Z,97686.00
2023-03-10T14:09:38.615Z,97706.78
2023-03-10T14:12:05.482Z,97700.13
2023-03-10T14:14:34.568Z,97701.34
2023-03-10T14:17:02.696Z,97678.00
2023-03-10T14:19:46.774Z,97688.94
2023-03-10T14:22:28.045Z,97693.00
2023-03-10T14:25:11.525Z,97704.59
2023-03-10T14:27:42.189Z,97718.88
2023-03-10T14:30:31.595Z,97696.50
2023-03-10T14:33:01.740Z,97714.47
2023-03-10T14:35:30.382Z,97718.16
2023-03-10T14:37:58.810Z,97703.56
2023-03-10T14:40:30.258Z,97716.28
2023-03-10T14:43:17.216Z,97713.94
2023-03-10T14:46:13.456Z,97678.34
2023-03-10T14:49:14.001Z,97679.50
2023-03-10T14:51:59.761Z,97676.38
2023-03-10T14:54:38.731Z,97707.72
2023-03-10T14:57:29.215Z,97678.25
2023-03-10T15:00:04.554Z,97675.81
2023-03-10T15:02:47.613Z,97688.31
2023-03-10T15:05:20.451Z,97674.66
2023-03-10T15:08:10.699Z,97685.31
2023-03-10T15:10:49.322Z,97663.66
2023-03-10T15:13:17.244Z,97678.63
2023-03-10T15:15:45.565Z,97658.19
2023-03-10T15:18:15.469Z,97651.00
2023-03-10T15:20:42.203Z,97654.50
2023-03-10T15:23:09.220Z,97658.78
2023-03-10T15:25:36.261Z,97641.66
2023-03-10T15:28:03.758Z,97649.06
2023-03-10T15:30:32.600Z,97659.94
2023-03-10T15:32:59.352Z,97644.72
2023-03-10T15:35:30.166Z,97662.66
2023-03-10T15:37:58.825Z,97662.09
2023-03-10T15:40:32.678Z,97667.63
2023-03-10T15:42:59.603Z,97656.97
2023-03-10T15:45:30.880Z,97659.19
2023-03-10T15:48:00.498Z,97663.16
2023-03-10T15:50:30.948Z,97657.25
2023-03-10T15:53:01.060Z,97649.63
2023-03-10T15:55:32.472Z,97677.13
2023-03-10T15:58:02.233Z,97655.19
2023-03-10T16:00:31.421Z,97668.63
2023-03-10T16:03:00.804Z,97664.44
2023-03-10T16:05:32.370Z,97651.78
2023-03-10T16:08:01.775Z,97650.69
2023-03-10T16:10:31.989Z,97655.88
2023-03-10T16:13:00.816Z,97655.41
2023-03-10T16:15:31.438Z,97641.50
2023-03-10T16:18:03.056Z,97667.22
2023-03-10T16:20:29.620Z,97666.84
2023-03-10T16:23:02.560Z,97667.72
2023-03-10T16:25:32.271Z,97667.25
2023-03-10T16:28:01.449Z,97665.66
2023-03-10T16:30:30.363Z,97648.53
2023-03-10T16:32:59.994Z,97647.06
2023-03-10T16:35:30.442Z,97628.34
2023-03-10T16:38:02.085Z,97653.69
2023-03-10T16:40:44.622Z,97639.69
2023-03-10T16:43:11.529Z,97645.59
2023-03-10T16:45:39.798Z,97671.06
2023-03-10T16:48:06.857Z,97668.00
2023-03-10T16:50:33.743Z,97640.44
2023-03-10T16:53:03.718Z,97667.72
2023-03-10T16:55:30.814Z,97659.25
2023-03-10T16:58:05.589Z,97670.69
2023-03-10T17:00:36.885Z,97665.53
2023-03-10T17:03:06.393Z,97656.91
2023-03-10T17:05:35.683Z,97663.41
2023-03-10T17:08:03.985Z,97633.47
2023-03-10T17:10:31.007Z,97645.16
2023-03-10T17:13:02.340Z,97628.03
2023-03-10T17:15:29.794Z,97639.81
2023-03-10T17:17:59.791Z,97650.19
2023-03-10T17:20:32.156Z,97663.72
2023-03-10T17:23:05.126Z,97668.88
2023-03-10T17:25:35.800Z,97675.28
2023-03-10T17:28:02.566Z,97642.75
2023-03-10T17:30:29.123Z,97637.78
2023-03-10T17:33:01.325Z,97648.63
2023-03-10T17:35:34.628Z,97665.84
2023-03-10T17:38:01.284Z,97658.53
2023-03-10T17:40:30.874Z,97661.84
2023-03-10T17:43:08.387Z,97656.78
2023-03-10T17:45:41.926Z,97655.78
2023-03-10T17:48:08.499Z,97653.81
2023-03-10T17:50:35.104Z,97648.97
2023-03-10T17:53:01.599Z,97637.88
2023-03-10T17:55:30.180Z,97655.13
2023-03-10T17:58:00.109Z,97660.59
2023-03-10T18:00:29.700Z,97635.22
2023-03-10T18:03:00.280Z,97646.03
2023-03-10T18:05:29.991Z,97640.53
2023-03-10T18:07:59.636Z,97639.09
2023-03-10T18:10:29.204Z,97628.78
2023-03-10T18:13:03.603Z,97620.16
2023-03-10T18:15:32.109Z,97646.25
2023-03-10T18:17:59.076Z,97644.75
2023-03-10T18:20:31.881Z,97639.19
2023-03-10T18:23:01.476Z,97640.94
2023-03-10T18:25:34.031Z,97638.34
2023-03-10T18:28:00.749Z,97643.34
2023-03-10T18:30:31.288Z,97649.63
2023-03-10T18:32:59.976Z,97646.38
2023-03-10T18:35:32.623Z,97640.69
2023-03-10T18:37:59.529Z,97653.97
2023-03-10T18:40:28.945Z,97637.78
2023-03-10T18:43:01.387Z,97628.56
2023-03-10T18:45:30.283Z,97593.34
2023-03-10T18:48:04.901Z,97610.19
2023-03-10T18:50:31.749Z,97617.09
2023-03-10T18:53:01.232Z,97628.13
2023-03-10T18:55:35.222Z,97603.84
2023-03-10T18:58:08.410Z,97618.53
2023-03-10T19:00:36.804Z,97615.50
2023-03-10T19:03:03.466Z,97604.16
2023-03-10T19:05:30.253Z,97620.44
2023-03-10T19:07:59.959Z,97604.03
2023-03-10T19:10:32.531Z,97611.28
2023-03-10T19:12:59.194Z,97606.09
2023-03-10T19:15:28.305Z,97628.75
2023-03-10T19:17:59.130Z,97613.25
2023-03-10T19:20:37.806Z,97616.69
2023-03-10T19:23:04.532Z,97611.50
2023-03-10T19:25:31.158Z,97630.09
2023-03-10T19:28:00.853Z,97628.16
2023-03-10T19:30:29.576Z,97613.50
2023-03-10T19:33:06.824Z,97624.31
2023-03-10T19:35:33.536Z,97630.53
2023-03-10T19:38:00.250Z,97639.88
2023-03-10T19:40:33.029Z,97606.81
2023-03-10T19:43:02.976Z,97609.56
2023-03-10T19:45:31.033Z,97633.41
2023-03-10T19:48:02.581Z,97644.41
2023-03-10T19:50:31.811Z,97623.69
2023-03-10T19:53:08.897Z,97640.84
2023-03-10T19:55:37.534Z,97643.31
2023-03-10T19:58:07.701Z,97628.22
2023-03-10T20:00:34.512Z,97630.16
2023-03-10T20:03:05.109Z,97623.25
2023-03-10T20:05:41.375Z,97642.44
2023-03-10T20:08:08.861Z,97648.38
2023-03-10T20:10:35.504Z,97644.34
2023-03-10T20:13:02.228Z,97668.72
2023-03-10T20:15:28.913Z,97653.59
2023-03-10T20:18:01.921Z,97644.41
2023-03-10T20:20:30.859Z,97648.09
2023-03-10T20:22:59.463Z,97642.56
2023-03-10T20:25:29.888Z,97662.00
2023-03-10T20:28:02.126Z,97676.97
2023-03-10T20:30:29.970Z,97664.53
2023-03-10T20:33:02.183Z,97671.84
2023-03-10T20:35:31.478Z,97669.38
2023-03-10T20:38:01.231Z,97664.38
2023-03-10T20:40:29.544Z,97661.53
2023-03-10T20:42:58.960Z,97675.44
2023-03-10T20:45:31.692Z,97685.66
2023-03-10T20:48:01.794Z,97681.31
2023-03-10T20:50:35.922Z,97651.72
2023-03-10T20:53:03.251Z,97646.72
2023-03-10T20:55:31.357Z,97671.16
2023-03-10T20:58:01.677Z,97680.38
2023-03-10T21:00:30.699Z,97680.38
2023-03-10T21:02:59.302Z,97658.97
2023-03-10T21:05:30.029Z,97682.88
2023-03-10T21:08:02.653Z,97667.13
2023-03-10T21:10:29.225Z,97690.94
2023-03-10T21:13:01.842Z,97670.13
2023-03-10T21:15:30.077Z,97680.00
2023-03-10T21:18:09.045Z,97673.69
2023-03-10T21:20:38.035Z,97677.53
2023-03-10T21:23:06.218Z,97680.13
2023-03-10T21:25:32.779Z,97696.75
2023-03-10T21:27:59.349Z,97700.75
2023-03-10T21:30:32.046Z,97680.00
2023-03-10T21:33:00.784Z,97715.19
2023-03-10T21:35:32.601Z,97698.38
2023-03-10T21:38:00.766Z,97700.56
2023-03-10T21:40:30.280Z,97689.97
2023-03-10T21:43:02.999Z,97717.66
2023-03-10T21:45:29.721Z,97721.69
2023-03-10T21:48:02.336Z,97722.47
2023-03-10T21:50:28.905Z,97720.34
2023-03-10T21:53:03.144Z,97721.13
2023-03-10T21:55:36.985Z,97742.19
2023-03-10T21:58:05.874Z,97711.41
2023-03-10T22:00:33.095Z,97718.69
2023-03-10T22:02:59.787Z,97724.06
2023-03-10T22:05:29.429Z,97737.94
2023-03-10T22:07:59.168Z,97741.88
2023-03-10T22:10:31.154Z,97733.97
2023-03-10T22:13:00.939Z,97730.28
2023-03-10T22:15:32.040Z,97785.72
2023-03-10T22:18:01.779Z,97751.03
2023-03-10T22:20:31.587Z,97765.56
2023-03-10T22:23:01.170Z,97790.16
2023-03-10T22:25:29.239Z,97799.59
2023-03-10T22:27:58.574Z,97812.50
2023-03-10T22:30:31.237Z,97827.81
2023-03-10T22:32:59.770Z,97815.19
2023-03-10T22:35:32.334Z,97821.94
2023-03-10T22:37:59.188Z,97861.13
2023-03-10T22:40:33.750Z,97865.91
2023-03-10T22:43:00.357Z,97859.88
2023-03-10T22:45:31.814Z,97850.75
2023-03-10T22:48:02.540Z,97850.31
2023-03-10T22:50:31.790Z,97854.44
2023-03-10T22:53:00.805Z,97872.66
2023-03-10T22:55:30.318Z,97885.09
2023-03-10T22:58:01.540Z,97897.03
2023-03-10T23:00:30.430Z,97901.34
2023-03-10T23:02:59.353Z,97883.69
2023-03-10T23:05:32.038Z,97919.81
2023-03-10T23:08:00.367Z,97899.19
2023-03-10T23:10:36.050Z,97879.34
2023-03-10T23:13:07.685Z,97929.63
2023-03-10T23:15:37.395Z,97914.97
2023-03-10T23:18:05.788Z,97909.84
2023-03-10T23:20:34.476Z,97960.13
2023-03-10T23:23:06.051Z,97981.97
2023-03-10T23:25:39.776Z,97990.53
2023-03-10T23:28:10.104Z,98004.38
2023-03-10T23:30:43.190Z,98014.03
2023-03-10T23:33:12.116Z,98020.88
2023-03-10T23:35:45.802Z,98015.25
2023-03-10T23:38:14.732Z,98022.69
2023-03-10T23:40:45.932Z,98063.00
2023-03-10T23:43:35.536Z,98054.13
2023-03-10T23:46:37.171Z,98077.25
2023-03-10T23:49:44.523Z,98097.78
2023-03-10T23:52:35.683Z,98088.97
2023-03-10T23:55:07.283Z,98104.25
2023-03-10T23:57:37.056Z,98126.69
